sensor_id;sensor_type;location;lat;lon;timestamp;temperature;humidity
20398;DHT22;10358;49.590;11.030;2023-04-25T00:02:20;9.20;99.90
20398;DHT22;10358;49.590;11.030;2023-04-25T00:04:46;9.20;99.90
20398;DHT22;10358;49.590;11.030;2023-04-25T00:07:14;9.20;99.90
20398;DHT22;10358;49.590;11.030;2023-04-25T00:09:39;9.30;99.90
20398;DHT22;10358;49.590;11.030;2023-04-25T00:12:06;9.20;99.90
20398;DHT22;10358;49.590;11.030;2023-04-25T00:14:31;9.20;99.90
20398;DHT22;10358;49.590;11.030;2023-04-25T00:16:59;9.30;99.90
20398;DHT22;10358;49.590;11.030;2023-04-25T00:19:26;9.30;99.90
20398;DHT22;10358;49.590;11.030;2023-04-25T00:21:56;9.30;99.90
20398;DHT22;10358;49.590;11.030;2023-04-25T00:24:22;9.30;99.90
20398;DHT22;10358;49.590;11.030;2023-04-25T00:26:47;9.30;99.90
20398;DHT22;10358;49.590;11.030;2023-04-25T00:29:13;9.30;99.90
20398;DHT22;10358;49.590;11.030;2023-04-25T00:31:38;9.30;99.90
20398;DHT22;10358;49.590;11.030;2023-04-25T00:34:06;9.30;99.90
20398;DHT22;10358;49.590;11.030;2023-04-25T00:36:31;9.30;99.90
20398;DHT22;10358;49.590;11.030;2023-04-25T00:38:57;9.30;99.90
20398;DHT22;10358;49.590;11.030;2023-04-25T00:41:25;9.20;99.90
20398;DHT22;10358;49.590;11.030;2023-04-25T00:43:51;9.20;99.90
20398;DHT22;10358;49.590;11.030;2023-04-25T00:46:17;9.20;99.90
20398;DHT22;10358;49.590;11.030;2023-04-25T00:48:42;9.20;99.90
20398;DHT22;10358;49.590;11.030;2023-04-25T00:51:09;9.10;99.90
20398;DHT22;10358;49.590;11.030;2023-04-25T00:53:37;9.20;99.90
20398;DHT22;10358;49.590;11.030;2023-04-25T00:56:03;9.10;99.90
20398;DHT22;10358;49.590;11.030;2023-04-25T00:58:29;9.10;99.90
20398;DHT22;10358;49.590;11.030;2023-04-25T01:00:55;9.10;99.90
20398;DHT22;10358;49.590;11.030;2023-04-25T01:03:21;9.10;99.90
20398;DHT22;10358;49.590;11.030;2023-04-25T01:05:47;9.10;99.90
20398;DHT22;10358;49.590;11.030;2023-04-25T01:08:13;9.10;99.90
20398;DHT22;10358;49.590;11.030;2023-04-25T01:10:39;9.10;99.90
20398;DHT22;10358;49.590;11.030;2023-04-25T01:13:05;9.10;99.90
20398;DHT22;10358;49.590;11.030;2023-04-25T01:15:31;9.10;99.90
20398;DHT22;10358;49.590;11.030;2023-04-25T01:17:57;9.10;99.90
20398;DHT22;10358;49.590;11.030;2023-04-25T01:20:24;9.10;99.90
20398;DHT22;10358;49.590;11.030;2023-04-25T01:22:51;9.10;99.90
20398;DHT22;10358;49.590;11.030;2023-04-25T01:25:18;9.00;99.90
20398;DHT22;10358;49.590;11.030;2023-04-25T01:27:44;9.00;99.90
20398;DHT22;10358;49.590;11.030;2023-04-25T01:30:10;9.00;99.90
20398;DHT22;10358;49.590;11.030;2023-04-25T01:32:36;9.10;99.90
20398;DHT22;10358;49.590;11.030;2023-04-25T01:35:06;9.10;99.90
20398;DHT22;10358;49.590;11.030;2023-04-25T01:37:36;9.10;99.90
20398;DHT22;10358;49.590;11.030;2023-04-25T01:40:02;9.10;99.90
20398;DHT22;10358;49.590;11.030;2023-04-25T01:42:28;9.00;99.90
20398;DHT22;10358;49.590;11.030;2023-04-25T01:44:54;9.00;99.90
20398;DHT22;10358;49.590;11.030;2023-04-25T01:47:19;9.00;99.90
20398;DHT22;10358;49.590;11.030;2023-04-25T01:49:45;9.00;99.90
20398;DHT22;10358;49.590;11.030;2023-04-25T01:52:11;9.00;99.90
20398;DHT22;10358;49.590;11.030;2023-04-25T01:54:36;9.00;99.90
20398;DHT22;10358;49.590;11.030;2023-04-25T01:57:02;9.00;99.90
20398;DHT22;10358;49.590;11.030;2023-04-25T01:59:27;9.00;99.90
20398;DHT22;10358;49.590;11.030;2023-04-25T02:01:53;9.00;99.90
20398;DHT22;10358;49.590;11.030;2023-04-25T02:04:18;9.00;99.90
20398;DHT22;10358;49.590;11.030;2023-04-25T02:06:44;9.00;99.90
20398;DHT22;10358;49.590;11.030;2023-04-25T02:09:09;9.00;99.90
20398;DHT22;10358;49.590;11.030;2023-04-25T02:11:35;9.00;99.90
20398;DHT22;10358;49.590;11.030;2023-04-25T02:14:00;9.00;99.90
20398;DHT22;10358;49.590;11.030;2023-04-25T02:16:26;9.00;99.90
20398;DHT22;10358;49.590;11.030;2023-04-25T02:18:51;9.00;99.90
20398;DHT22;10358;49.590;11.030;2023-04-25T02:21:18;9.00;99.90
20398;DHT22;10358;49.590;11.030;2023-04-25T02:23:43;9.00;99.90
20398;DHT22;10358;49.590;11.030;2023-04-25T02:26:11;8.90;99.90
20398;DHT22;10358;49.590;11.030;2023-04-25T02:28:36;8.90;99.90
20398;DHT22;10358;49.590;11.030;2023-04-25T02:31:02;8.90;99.90
20398;DHT22;10358;49.590;11.030;2023-04-25T02:33:27;8.90;99.90
20398;DHT22;10358;49.590;11.030;2023-04-25T02:35:53;8.90;99.90
20398;DHT22;10358;49.590;11.030;2023-04-25T02:38:19;8.80;99.90
20398;DHT22;10358;49.590;11.030;2023-04-25T02:40:44;8.80;99.90
20398;DHT22;10358;49.590;11.030;2023-04-25T02:43:10;8.80;99.90
20398;DHT22;10358;49.590;11.030;2023-04-25T02:45:35;8.80;99.90
20398;DHT22;10358;49.590;11.030;2023-04-25T02:48:02;8.80;99.90
20398;DHT22;10358;49.590;11.030;2023-04-25T02:50:28;8.80;99.90
20398;DHT22;10358;49.590;11.030;2023-04-25T02:52:53;8.80;99.90
20398;DHT22;10358;49.590;11.030;2023-04-25T02:55:19;8.80;99.90
20398;DHT22;10358;49.590;11.030;2023-04-25T02:57:45;8.80;99.90
20398;DHT22;10358;49.590;11.030;2023-04-25T03:00:11;8.70;99.90
20398;DHT22;10358;49.590;11.030;2023-04-25T03:02:37;8.70;99.90
20398;DHT22;10358;49.590;11.030;2023-04-25T03:05:02;8.70;99.90
20398;DHT22;10358;49.590;11.030;2023-04-25T03:07:28;8.70;99.90
20398;DHT22;10358;49.590;11.030;2023-04-25T03:09:54;8.70;99.90
20398;DHT22;10358;49.590;11.030;2023-04-25T03:12:20;8.60;99.90
20398;DHT22;10358;49.590;11.030;2023-04-25T03:14:46;8.60;99.90
20398;DHT22;10358;49.590;11.030;2023-04-25T03:17:11;8.60;99.90
20398;DHT22;10358;49.590;11.030;2023-04-25T03:19:37;8.60;99.90
20398;DHT22;10358;49.590;11.030;2023-04-25T03:22:03;8.60;99.90
20398;DHT22;10358;49.590;11.030;2023-04-25T03:24:28;8.60;99.90
20398;DHT22;10358;49.590;11.030;2023-04-25T03:26:54;8.60;99.90
20398;DHT22;10358;49.590;11.030;2023-04-25T03:29:19;8.50;99.90
20398;DHT22;10358;49.590;11.030;2023-04-25T03:31:49;8.50;99.90
20398;DHT22;10358;49.590;11.030;2023-04-25T03:34:15;8.50;99.90
20398;DHT22;10358;49.590;11.030;2023-04-25T03:36:40;8.50;99.90
20398;DHT22;10358;49.590;11.030;2023-04-25T03:39:06;8.50;99.90
20398;DHT22;10358;49.590;11.030;2023-04-25T03:41:31;8.40;99.90
20398;DHT22;10358;49.590;11.030;2023-04-25T03:43:57;8.40;99.90
20398;DHT22;10358;49.590;11.030;2023-04-25T03:46:22;8.50;99.90
20398;DHT22;10358;49.590;11.030;2023-04-25T03:48:48;8.50;99.90
20398;DHT22;10358;49.590;11.030;2023-04-25T03:51:14;8.50;99.90
20398;DHT22;10358;49.590;11.030;2023-04-25T03:53:39;8.50;99.90
20398;DHT22;10358;49.590;11.030;2023-04-25T03:56:05;8.50;99.90
20398;DHT22;10358;49.590;11.030;2023-04-25T03:58:30;8.50;99.90
20398;DHT22;10358;49.590;11.030;2023-04-25T04:00:56;8.50;99.90
20398;DHT22;10358;49.590;11.030;2023-04-25T04:03:22;8.50;99.90
20398;DHT22;10358;49.590;11.030;2023-04-25T04:05:47;8.60;99.90
20398;DHT22;10358;49.590;11.030;2023-04-25T04:08:13;8.50;99.90
20398;DHT22;10358;49.590;11.030;2023-04-25T04:10:38;8.60;99.90
20398;DHT22;10358;49.590;11.030;2023-04-25T04:13:04;8.50;99.90
20398;DHT22;10358;49.590;11.030;2023-04-25T04:15:29;8.60;99.90
20398;DHT22;10358;49.590;11.030;2023-04-25T04:17:58;8.50;99.90
20398;DHT22;10358;49.590;11.030;2023-04-25T04:20:28;8.50;99.90
20398;DHT22;10358;49.590;11.030;2023-04-25T04:22:53;8.50;99.90
20398;DHT22;10358;49.590;11.030;2023-04-25T04:25:19;8.40;99.90
20398;DHT22;10358;49.590;11.030;2023-04-25T04:27:45;8.50;99.90
20398;DHT22;10358;49.590;11.030;2023-04-25T04:30:11;8.50;99.90
20398;DHT22;10358;49.590;11.030;2023-04-25T04:32:37;8.40;99.90
20398;DHT22;10358;49.590;11.030;2023-04-25T04:35:04;8.40;99.90
20398;DHT22;10358;49.590;11.030;2023-04-25T04:37:30;8.40;99.90
20398;DHT22;10358;49.590;11.030;2023-04-25T04:39:55;8.40;99.90
20398;DHT22;10358;49.590;11.030;2023-04-25T04:42:21;8.40;99.90
20398;DHT22;10358;49.590;11.030;2023-04-25T04:44:46;8.40;99.90
20398;DHT22;10358;49.590;11.030;2023-04-25T04:47:12;8.40;99.90
20398;DHT22;10358;49.590;11.030;2023-04-25T04:49:39;8.40;99.90
20398;DHT22;10358;49.590;11.030;2023-04-25T04:52:05;8.40;99.90
20398;DHT22;10358;49.590;11.030;2023-04-25T04:54:31;8.40;99.90
20398;DHT22;10358;49.590;11.030;2023-04-25T04:56:56;8.40;99.90
20398;DHT22;10358;49.590;11.030;2023-04-25T04:59:22;8.40;99.90
20398;DHT22;10358;49.590;11.030;2023-04-25T05:01:47;8.40;99.90
20398;DHT22;10358;49.590;11.030;2023-04-25T05:04:13;8.40;99.90
20398;DHT22;10358;49.590;11.030;2023-04-25T05:06:38;8.40;99.90
20398;DHT22;10358;49.590;11.030;2023-04-25T05:09:04;8.40;99.90
20398;DHT22;10358;49.590;11.030;2023-04-25T05:11:29;8.40;99.90
20398;DHT22;10358;49.590;11.030;2023-04-25T05:13:55;8.30;99.90
20398;DHT22;10358;49.590;11.030;2023-04-25T05:16:21;8.20;99.90
20398;DHT22;10358;49.590;11.030;2023-04-25T05:18:47;8.10;99.90
20398;DHT22;10358;49.590;11.030;2023-04-25T05:21:13;8.10;99.90
20398;DHT22;10358;49.590;11.030;2023-04-25T05:23:38;8.10;99.90
20398;DHT22;10358;49.590;11.030;2023-04-25T05:26:04;8.10;99.90
20398;DHT22;10358;49.590;11.030;2023-04-25T05:28:29;8.20;99.90
20398;DHT22;10358;49.590;11.030;2023-04-25T05:30:55;8.10;99.90
20398;DHT22;10358;49.590;11.030;2023-04-25T05:33:21;8.20;99.90
20398;DHT22;10358;49.590;11.030;2023-04-25T05:35:46;8.20;99.90
20398;DHT22;10358;49.590;11.030;2023-04-25T05:38:12;8.20;99.90
20398;DHT22;10358;49.590;11.030;2023-04-25T05:40:38;8.30;99.90
20398;DHT22;10358;49.590;11.030;2023-04-25T05:43:03;8.20;99.90
20398;DHT22;10358;49.590;11.030;2023-04-25T05:45:29;8.30;99.90
20398;DHT22;10358;49.590;11.030;2023-04-25T05:47:54;8.20;99.90
20398;DHT22;10358;49.590;11.030;2023-04-25T05:50:20;8.20;99.90
20398;DHT22;10358;49.590;11.030;2023-04-25T05:52:45;8.20;99.90
20398;DHT22;10358;49.590;11.030;2023-04-25T05:55:11;8.20;99.90
20398;DHT22;10358;49.590;11.030;2023-04-25T05:57:37;8.20;99.90
20398;DHT22;10358;49.590;11.030;2023-04-25T06:00:03;8.20;99.90
20398;DHT22;10358;49.590;11.030;2023-04-25T06:02:30;8.20;99.90
20398;DHT22;10358;49.590;11.030;2023-04-25T06:04:55;8.20;99.90
20398;DHT22;10358;49.590;11.030;2023-04-25T06:07:21;8.20;99.90
20398;DHT22;10358;49.590;11.030;2023-04-25T06:09:47;8.20;99.90
20398;DHT22;10358;49.590;11.030;2023-04-25T06:12:12;8.10;99.90
20398;DHT22;10358;49.590;11.030;2023-04-25T06:14:38;8.10;99.90
20398;DHT22;10358;49.590;11.030;2023-04-25T06:17:03;8.10;99.90
20398;DHT22;10358;49.590;11.030;2023-04-25T06:19:34;8.10;99.90
20398;DHT22;10358;49.590;11.030;2023-04-25T06:22:00;8.10;99.90
20398;DHT22;10358;49.590;11.030;2023-04-25T06:24:27;8.10;99.90
20398;DHT22;10358;49.590;11.030;2023-04-25T06:26:55;8.20;99.90
20398;DHT22;10358;49.590;11.030;2023-04-25T06:29:21;8.20;99.90
20398;DHT22;10358;49.590;11.030;2023-04-25T06:31:47;8.10;99.90
20398;DHT22;10358;49.590;11.030;2023-04-25T06:34:12;8.20;99.90
20398;DHT22;10358;49.590;11.030;2023-04-25T06:36:38;8.20;99.90
20398;DHT22;10358;49.590;11.030;2023-04-25T06:39:03;8.10;99.90
20398;DHT22;10358;49.590;11.030;2023-04-25T06:41:29;8.20;99.90
20398;DHT22;10358;49.590;11.030;2023-04-25T06:43:54;8.20;99.90
20398;DHT22;10358;49.590;11.030;2023-04-25T06:46:20;8.30;99.90
20398;DHT22;10358;49.590;11.030;2023-04-25T06:48:46;8.40;99.90
20398;DHT22;10358;49.590;11.030;2023-04-25T06:51:11;8.40;99.90
20398;DHT22;10358;49.590;11.030;2023-04-25T06:53:38;8.50;99.90
20398;DHT22;10358;49.590;11.030;2023-04-25T06:56:04;8.40;99.90
20398;DHT22;10358;49.590;11.030;2023-04-25T06:58:30;8.40;99.90
20398;DHT22;10358;49.590;11.030;2023-04-25T07:00:55;8.30;99.90
20398;DHT22;10358;49.590;11.030;2023-04-25T07:03:21;8.20;99.90
20398;DHT22;10358;49.590;11.030;2023-04-25T07:05:46;7.90;99.90
20398;DHT22;10358;49.590;11.030;2023-04-25T07:08:12;7.60;99.90
20398;DHT22;10358;49.590;11.030;2023-04-25T07:10:38;7.30;99.90
20398;DHT22;10358;49.590;11.030;2023-04-25T07:13:03;7.10;99.90
20398;DHT22;10358;49.590;11.030;2023-04-25T07:15:29;7.00;99.90
20398;DHT22;10358;49.590;11.030;2023-04-25T07:17:54;7.10;99.90
20398;DHT22;10358;49.590;11.030;2023-04-25T07:20:20;7.10;99.90
20398;DHT22;10358;49.590;11.030;2023-04-25T07:22:46;7.10;99.90
20398;DHT22;10358;49.590;11.030;2023-04-25T07:25:11;7.00;99.90
20398;DHT22;10358;49.590;11.030;2023-04-25T07:27:37;7.00;99.90
20398;DHT22;10358;49.590;11.030;2023-04-25T07:30:03;6.90;99.90
20398;DHT22;10358;49.590;11.030;2023-04-25T07:32:29;6.90;99.90
20398;DHT22;10358;49.590;11.030;2023-04-25T07:34:55;7.00;99.90
20398;DHT22;10358;49.590;11.030;2023-04-25T07:37:21;7.10;99.90
20398;DHT22;10358;49.590;11.030;2023-04-25T07:39:46;7.30;99.90
20398;DHT22;10358;49.590;11.030;2023-04-25T07:42:12;7.40;99.90
20398;DHT22;10358;49.590;11.030;2023-04-25T07:44:38;7.60;99.90
20398;DHT22;10358;49.590;11.030;2023-04-25T07:47:05;7.70;99.90
20398;DHT22;10358;49.590;11.030;2023-04-25T07:49:37;7.80;99.90
20398;DHT22;10358;49.590;11.030;2023-04-25T07:52:04;7.90;99.90
20398;DHT22;10358;49.590;11.030;2023-04-25T07:54:31;8.00;99.90
20398;DHT22;10358;49.590;11.030;2023-04-25T07:56:57;8.20;99.90
20398;DHT22;10358;49.590;11.030;2023-04-25T07:59:23;8.30;99.90
20398;DHT22;10358;49.590;11.030;2023-04-25T08:01:49;8.50;99.90
20398;DHT22;10358;49.590;11.030;2023-04-25T08:04:14;8.60;99.90
20398;DHT22;10358;49.590;11.030;2023-04-25T08:06:40;8.80;99.90
20398;DHT22;10358;49.590;11.030;2023-04-25T08:09:06;8.90;99.90
20398;DHT22;10358;49.590;11.030;2023-04-25T08:11:31;8.90;99.90
20398;DHT22;10358;49.590;11.030;2023-04-25T08:13:57;8.90;99.90
20398;DHT22;10358;49.590;11.030;2023-04-25T08:16:23;8.80;99.90
20398;DHT22;10358;49.590;11.030;2023-04-25T08:18:50;8.90;99.90
20398;DHT22;10358;49.590;11.030;2023-04-25T08:21:15;9.00;99.90
20398;DHT22;10358;49.590;11.030;2023-04-25T08:23:41;9.10;99.90
20398;DHT22;10358;49.590;11.030;2023-04-25T08:26:06;9.10;99.90
20398;DHT22;10358;49.590;11.030;2023-04-25T08:28:32;9.10;99.90
20398;DHT22;10358;49.590;11.030;2023-04-25T08:30:58;9.00;99.90
20398;DHT22;10358;49.590;11.030;2023-04-25T08:33:23;9.10;99.90
20398;DHT22;10358;49.590;11.030;2023-04-25T08:35:49;9.10;99.90
20398;DHT22;10358;49.590;11.030;2023-04-25T08:38:14;9.10;99.90
20398;DHT22;10358;49.590;11.030;2023-04-25T08:40:40;9.10;99.90
20398;DHT22;10358;49.590;11.030;2023-04-25T08:43:07;9.00;99.90
20398;DHT22;10358;49.590;11.030;2023-04-25T08:45:39;9.10;99.90
20398;DHT22;10358;49.590;11.030;2023-04-25T08:48:13;9.10;99.90
20398;DHT22;10358;49.590;11.030;2023-04-25T08:50:45;9.00;99.90
20398;DHT22;10358;49.590;11.030;2023-04-25T08:53:16;9.00;99.90
20398;DHT22;10358;49.590;11.030;2023-04-25T08:55:46;8.90;99.90
20398;DHT22;10358;49.590;11.030;2023-04-25T08:58:12;9.20;99.90
20398;DHT22;10358;49.590;11.030;2023-04-25T09:00:38;9.30;99.90
20398;DHT22;10358;49.590;11.030;2023-04-25T09:03:04;9.40;99.90
20398;DHT22;10358;49.590;11.030;2023-04-25T09:05:34;9.60;99.90
20398;DHT22;10358;49.590;11.030;2023-04-25T09:08:01;9.70;99.90
20398;DHT22;10358;49.590;11.030;2023-04-25T09:10:27;9.80;99.90
20398;DHT22;10358;49.590;11.030;2023-04-25T09:15:32;10.00;99.90
20398;DHT22;10358;49.590;11.030;2023-04-25T09:17:58;10.10;99.90
20398;DHT22;10358;49.590;11.030;2023-04-25T09:20:24;10.20;99.90
20398;DHT22;10358;49.590;11.030;2023-04-25T09:23:04;10.20;99.90
20398;DHT22;10358;49.590;11.030;2023-04-25T09:25:35;10.20;99.90
20398;DHT22;10358;49.590;11.030;2023-04-25T09:28:04;10.20;99.90
20398;DHT22;10358;49.590;11.030;2023-04-25T09:30:31;10.30;99.90
20398;DHT22;10358;49.590;11.030;2023-04-25T09:33:03;10.50;99.90
20398;DHT22;10358;49.590;11.030;2023-04-25T09:35:30;10.70;99.90
20398;DHT22;10358;49.590;11.030;2023-04-25T09:38:00;10.90;99.90
20398;DHT22;10358;49.590;11.030;2023-04-25T09:40:26;11.00;99.90
20398;DHT22;10358;49.590;11.030;2023-04-25T09:42:51;11.10;99.90
20398;DHT22;10358;49.590;11.030;2023-04-25T09:45:17;11.20;99.90
20398;DHT22;10358;49.590;11.030;2023-04-25T09:47:43;11.20;99.90
20398;DHT22;10358;49.590;11.030;2023-04-25T09:50:15;11.20;99.90
20398;DHT22;10358;49.590;11.030;2023-04-25T09:52:41;11.20;99.90
20398;DHT22;10358;49.590;11.030;2023-04-25T09:55:07;11.20;99.90
20398;DHT22;10358;49.590;11.030;2023-04-25T09:57:33;11.10;99.90
20398;DHT22;10358;49.590;11.030;2023-04-25T10:00:00;11.00;99.90
20398;DHT22;10358;49.590;11.030;2023-04-25T10:02:27;10.80;99.90
20398;DHT22;10358;49.590;11.030;2023-04-25T10:04:54;10.90;99.90
20398;DHT22;10358;49.590;11.030;2023-04-25T10:07:25;10.90;99.90
20398;DHT22;10358;49.590;11.030;2023-04-25T10:09:58;10.80;99.90
20398;DHT22;10358;49.590;11.030;2023-04-25T10:12:26;10.70;99.90
20398;DHT22;10358;49.590;11.030;2023-04-25T10:14:52;10.90;99.90
20398;DHT22;10358;49.590;11.030;2023-04-25T10:17:19;11.20;99.90
20398;DHT22;10358;49.590;11.030;2023-04-25T10:19:46;11.50;99.20
20398;DHT22;10358;49.590;11.030;2023-04-25T10:22:32;11.50;98.50
20398;DHT22;10358;49.590;11.030;2023-04-25T10:25:00;11.40;99.10
20398;DHT22;10358;49.590;11.030;2023-04-25T10:27:29;11.30;99.30
20398;DHT22;10358;49.590;11.030;2023-04-25T10:30:07;11.30;99.50
20398;DHT22;10358;49.590;11.030;2023-04-25T10:32:35;11.50;99.30
20398;DHT22;10358;49.590;11.030;2023-04-25T10:37:37;11.80;97.40
20398;DHT22;10358;49.590;11.030;2023-04-25T10:40:09;11.80;96.60
20398;DHT22;10358;49.590;11.030;2023-04-25T10:42:35;11.80;95.30
20398;DHT22;10358;49.590;11.030;2023-04-25T10:45:09;11.80;95.00
20398;DHT22;10358;49.590;11.030;2023-04-25T10:47:36;11.80;95.50
20398;DHT22;10358;49.590;11.030;2023-04-25T10:50:06;11.90;95.00
20398;DHT22;10358;49.590;11.030;2023-04-25T10:52:33;11.80;95.10
20398;DHT22;10358;49.590;11.030;2023-04-25T10:54:58;11.70;95.30
20398;DHT22;10358;49.590;11.030;2023-04-25T11:00:13;11.30;96.30
20398;DHT22;10358;49.590;11.030;2023-04-25T11:02:48;11.30;96.30
20398;DHT22;10358;49.590;11.030;2023-04-25T11:07:53;11.10;97.10
20398;DHT22;10358;49.590;11.030;2023-04-25T11:10:20;11.00;95.40
20398;DHT22;10358;49.590;11.030;2023-04-25T11:12:50;11.00;95.20
20398;DHT22;10358;49.590;11.030;2023-04-25T11:15:15;11.10;96.00
20398;DHT22;10358;49.590;11.030;2023-04-25T11:17:42;11.20;96.40
20398;DHT22;10358;49.590;11.030;2023-04-25T11:20:08;11.20;96.80
20398;DHT22;10358;49.590;11.030;2023-04-25T11:22:37;11.30;96.50
20398;DHT22;10358;49.590;11.030;2023-04-25T11:25:10;11.30;95.40
20398;DHT22;10358;49.590;11.030;2023-04-25T11:27:52;11.30;95.60
20398;DHT22;10358;49.590;11.030;2023-04-25T11:30:19;11.20;94.80
20398;DHT22;10358;49.590;11.030;2023-04-25T11:32:46;11.30;95.20
20398;DHT22;10358;49.590;11.030;2023-04-25T11:35:12;11.40;95.60
20398;DHT22;10358;49.590;11.030;2023-04-25T11:37:43;11.50;95.20
20398;DHT22;10358;49.590;11.030;2023-04-25T11:40:09;11.50;94.20
20398;DHT22;10358;49.590;11.030;2023-04-25T11:42:39;11.60;94.50
20398;DHT22;10358;49.590;11.030;2023-04-25T11:45:05;11.80;94.40
20398;DHT22;10358;49.590;11.030;2023-04-25T11:47:32;11.70;93.50
20398;DHT22;10358;49.590;11.030;2023-04-25T11:50:03;11.80;92.30
20398;DHT22;10358;49.590;11.030;2023-04-25T11:55:01;11.40;91.00
20398;DHT22;10358;49.590;11.030;2023-04-25T11:57:31;11.30;91.50
20398;DHT22;10358;49.590;11.030;2023-04-25T12:00:26;11.30;91.50
20398;DHT22;10358;49.590;11.030;2023-04-25T12:02:55;11.30;91.60
20398;DHT22;10358;49.590;11.030;2023-04-25T12:05:28;11.40;91.60
20398;DHT22;10358;49.590;11.030;2023-04-25T12:07:54;11.40;91.30
20398;DHT22;10358;49.590;11.030;2023-04-25T12:10:20;11.50;91.70
20398;DHT22;10358;49.590;11.030;2023-04-25T12:12:47;11.60;91.50
20398;DHT22;10358;49.590;11.030;2023-04-25T12:15:25;11.60;91.70
20398;DHT22;10358;49.590;11.030;2023-04-25T12:17:52;11.70;91.30
20398;DHT22;10358;49.590;11.030;2023-04-25T12:20:21;11.90;90.90
20398;DHT22;10358;49.590;11.030;2023-04-25T12:22:50;12.00;90.60
20398;DHT22;10358;49.590;11.030;2023-04-25T12:25:39;12.00;89.50
20398;DHT22;10358;49.590;11.030;2023-04-25T12:28:17;11.70;89.10
20398;DHT22;10358;49.590;11.030;2023-04-25T12:30:56;11.60;89.00
20398;DHT22;10358;49.590;11.030;2023-04-25T12:33:24;11.50;88.10
20398;DHT22;10358;49.590;11.030;2023-04-25T12:35:49;11.30;89.70
20398;DHT22;10358;49.590;11.030;2023-04-25T12:40:48;11.20;91.20
20398;DHT22;10358;49.590;11.030;2023-04-25T12:43:13;11.20;91.00
20398;DHT22;10358;49.590;11.030;2023-04-25T12:45:39;11.20;90.60
20398;DHT22;10358;49.590;11.030;2023-04-25T12:48:05;11.20;90.80
20398;DHT22;10358;49.590;11.030;2023-04-25T12:50:30;11.10;90.70
20398;DHT22;10358;49.590;11.030;2023-04-25T12:52:57;11.10;91.30
20398;DHT22;10358;49.590;11.030;2023-04-25T12:55:22;11.20;91.50
20398;DHT22;10358;49.590;11.030;2023-04-25T12:57:48;11.30;91.40
20398;DHT22;10358;49.590;11.030;2023-04-25T13:00:14;11.30;91.50
20398;DHT22;10358;49.590;11.030;2023-04-25T13:02:40;11.50;91.10
20398;DHT22;10358;49.590;11.030;2023-04-25T13:05:06;11.50;90.30
20398;DHT22;10358;49.590;11.030;2023-04-25T13:07:31;11.50;90.00
20398;DHT22;10358;49.590;11.030;2023-04-25T13:09:57;11.50;90.20
20398;DHT22;10358;49.590;11.030;2023-04-25T13:12:22;11.20;90.30
20398;DHT22;10358;49.590;11.030;2023-04-25T13:14:48;11.30;90.80
20398;DHT22;10358;49.590;11.030;2023-04-25T13:17:13;11.30;90.30
20398;DHT22;10358;49.590;11.030;2023-04-25T13:19:39;11.20;90.30
20398;DHT22;10358;49.590;11.030;2023-04-25T13:22:05;11.10;90.90
20398;DHT22;10358;49.590;11.030;2023-04-25T13:24:30;11.00;91.00
20398;DHT22;10358;49.590;11.030;2023-04-25T13:26:56;11.00;91.60
20398;DHT22;10358;49.590;11.030;2023-04-25T13:29:21;11.00;91.40
20398;DHT22;10358;49.590;11.030;2023-04-25T13:31:47;11.00;91.50
20398;DHT22;10358;49.590;11.030;2023-04-25T13:34:12;11.00;91.70
20398;DHT22;10358;49.590;11.030;2023-04-25T13:36:38;11.00;92.00
20398;DHT22;10358;49.590;11.030;2023-04-25T13:39:03;11.00;92.40
20398;DHT22;10358;49.590;11.030;2023-04-25T13:41:30;11.10;92.50
20398;DHT22;10358;49.590;11.030;2023-04-25T13:43:56;11.20;91.70
20398;DHT22;10358;49.590;11.030;2023-04-25T13:46:21;11.20;91.90
20398;DHT22;10358;49.590;11.030;2023-04-25T13:48:47;11.20;91.60
20398;DHT22;10358;49.590;11.030;2023-04-25T13:51:15;11.20;91.30
20398;DHT22;10358;49.590;11.030;2023-04-25T13:53:41;11.20;91.50
20398;DHT22;10358;49.590;11.030;2023-04-25T13:56:06;11.10;91.70
20398;DHT22;10358;49.590;11.030;2023-04-25T13:58:32;11.00;91.70
20398;DHT22;10358;49.590;11.030;2023-04-25T14:00:58;10.90;91.20
20398;DHT22;10358;49.590;11.030;2023-04-25T14:03:24;10.80;91.60
20398;DHT22;10358;49.590;11.030;2023-04-25T14:05:50;10.80;92.50
20398;DHT22;10358;49.590;11.030;2023-04-25T14:08:16;10.70;91.80
20398;DHT22;10358;49.590;11.030;2023-04-25T14:10:41;10.60;91.90
20398;DHT22;10358;49.590;11.030;2023-04-25T14:13:07;10.60;92.50
20398;DHT22;10358;49.590;11.030;2023-04-25T14:15:32;10.60;92.70
20398;DHT22;10358;49.590;11.030;2023-04-25T14:17:59;10.60;92.80
20398;DHT22;10358;49.590;11.030;2023-04-25T14:20:24;10.60;93.30
20398;DHT22;10358;49.590;11.030;2023-04-25T14:22:50;10.60;93.60
20398;DHT22;10358;49.590;11.030;2023-04-25T14:25:17;10.60;93.80
20398;DHT22;10358;49.590;11.030;2023-04-25T14:27:42;10.60;93.60
20398;DHT22;10358;49.590;11.030;2023-04-25T14:30:10;10.60;93.80
20398;DHT22;10358;49.590;11.030;2023-04-25T14:32:37;10.60;93.40
20398;DHT22;10358;49.590;11.030;2023-04-25T14:35:03;10.60;93.60
20398;DHT22;10358;49.590;11.030;2023-04-25T14:37:28;10.70;93.80
20398;DHT22;10358;49.590;11.030;2023-04-25T14:39:54;10.70;94.10
20398;DHT22;10358;49.590;11.030;2023-04-25T14:42:19;10.70;94.10
20398;DHT22;10358;49.590;11.030;2023-04-25T14:44:45;10.80;93.90
20398;DHT22;10358;49.590;11.030;2023-04-25T14:47:10;10.80;93.70
20398;DHT22;10358;49.590;11.030;2023-04-25T14:49:36;10.70;93.70
20398;DHT22;10358;49.590;11.030;2023-04-25T14:52:01;10.70;93.30
20398;DHT22;10358;49.590;11.030;2023-04-25T14:54:28;10.70;92.30
20398;DHT22;10358;49.590;11.030;2023-04-25T14:56:53;10.60;92.20
20398;DHT22;10358;49.590;11.030;2023-04-25T14:59:19;10.60;92.20
20398;DHT22;10358;49.590;11.030;2023-04-25T15:01:45;10.60;92.30
20398;DHT22;10358;49.590;11.030;2023-04-25T15:04:11;10.70;92.30
20398;DHT22;10358;49.590;11.030;2023-04-25T15:06:38;10.80;92.40
20398;DHT22;10358;49.590;11.030;2023-04-25T15:09:03;10.80;92.40
20398;DHT22;10358;49.590;11.030;2023-04-25T15:11:29;10.80;92.50
20398;DHT22;10358;49.590;11.030;2023-04-25T15:13:55;10.80;92.60
20398;DHT22;10358;49.590;11.030;2023-04-25T15:16:21;10.80;93.20
20398;DHT22;10358;49.590;11.030;2023-04-25T15:18:46;10.80;93.10
20398;DHT22;10358;49.590;11.030;2023-04-25T15:21:12;10.80;93.10
20398;DHT22;10358;49.590;11.030;2023-04-25T15:23:37;10.80;92.70
20398;DHT22;10358;49.590;11.030;2023-04-25T15:26:03;10.80;92.80
20398;DHT22;10358;49.590;11.030;2023-04-25T15:28:29;10.80;93.10
20398;DHT22;10358;49.590;11.030;2023-04-25T15:30:54;10.70;93.40
20398;DHT22;10358;49.590;11.030;2023-04-25T15:33:20;10.60;93.50
20398;DHT22;10358;49.590;11.030;2023-04-25T15:35:46;10.60;93.50
20398;DHT22;10358;49.590;11.030;2023-04-25T15:38:11;10.70;93.40